Time;durP1;ratioP1;P1;durP2;ratioP2;P2;SDS_P1;SDS_P2;PMS_P1;PMS_P2;Temp;Humidity;BMP_temperature;BMP_pressure;BME280_temperature;BME280_humidity;BME280_pressure;Samples;Min_cycle;Max_cycle;Signal;HPM_P1;HPM_P2
2022/11/22 00:00:27;;;;;;;6.90;1.58;;;;;;;3.52;100.00;98541.72;5057011;28;20079;-72
2022/11/22 00:02:52;;;;;;;6.97;1.48;;;;;;;3.52;100.00;98533.50;5040830;28;20158;-72
2022/11/22 00:05:18;;;;;;;5.20;1.25;;;;;;;3.50;100.00;98539.25;5043594;28;20031;-72
2022/11/22 00:07:44;;;;;;;9.40;2.00;;;;;;;3.51;100.00;98529.94;5040589;28;20082;-72
2022/11/22 00:10:10;;;;;;;7.40;1.55;;;;;;;3.51;100.00;98529.94;5037936;28;20040;-72
2022/11/22 00:12:35;;;;;;;13.43;1.77;;;;;;;3.55;100.00;98532.91;5020621;28;20031;-72
2022/11/22 00:15:01;;;;;;;7.10;1.30;;;;;;;3.60;100.00;98521.84;5051330;28;20040;-72
2022/11/22 00:17:26;;;;;;;8.60;1.88;;;;;;;3.62;100.00;98527.84;5057653;28;20025;-72
2022/11/22 00:19:52;;;;;;;13.80;1.80;;;;;;;3.61;100.00;98548.19;5090385;28;20032;-72
2022/11/22 00:22:17;;;;;;;5.60;1.50;;;;;;;3.65;100.00;98551.13;5058230;28;20086;-72
2022/11/22 00:24:45;;;;;;;10.48;1.77;;;;;;;3.68;100.00;98548.63;5077202;28;20484;-72
2022/11/22 00:27:10;;;;;;;5.80;1.70;;;;;;;3.72;100.00;98544.16;5060689;28;20029;-72
2022/11/22 00:29:36;;;;;;;8.20;1.73;;;;;;;3.76;100.00;98556.22;5064532;28;20036;-72
2022/11/22 00:32:01;;;;;;;7.93;1.55;;;;;;;3.80;100.00;98543.50;5059676;28;20029;-72
2022/11/22 00:34:27;;;;;;;9.30;1.70;;;;;;;3.84;100.00;98538.22;5027672;28;20047;-72
2022/11/22 00:36:52;;;;;;;6.93;1.75;;;;;;;3.87;100.00;98531.31;5054363;28;20025;-72
2022/11/22 00:39:18;;;;;;;7.80;1.80;;;;;;;3.91;100.00;98544.16;5044003;28;20036;-72
2022/11/22 00:41:43;;;;;;;8.35;1.63;;;;;;;3.92;100.00;98550.47;5043587;28;20032;-72
2022/11/22 00:44:09;;;;;;;9.48;1.50;;;;;;;3.93;100.00;98536.47;5060328;28;20032;-72
2022/11/22 00:46:34;;;;;;;9.45;1.77;;;;;;;3.96;100.00;98532.31;5027054;28;20029;-72
2022/11/22 00:49:00;;;;;;;5.60;1.45;;;;;;;3.95;100.00;98523.22;5027331;28;20040;-72
2022/11/22 00:51:25;;;;;;;7.32;1.38;;;;;;;3.94;100.00;98520.78;5039378;28;20494;-72
2022/11/22 00:53:51;;;;;;;5.43;1.40;;;;;;;3.94;100.00;98523.53;5082991;28;20036;-72
2022/11/22 00:56:16;;;;;;;8.48;1.20;;;;;;;3.98;100.00;98527.31;5054239;28;20025;-72
2022/11/22 00:58:41;;;;;;;5.60;1.75;;;;;;;3.94;100.00;98527.09;5073343;28;20029;-72
2022/11/22 01:01:07;;;;;;;5.93;1.20;;;;;;;3.93;100.00;98524.66;5040353;28;20091;-72
2022/11/22 01:03:32;;;;;;;4.65;1.00;;;;;;;3.94;100.00;98527.09;5056742;28;20039;-72
2022/11/22 01:05:58;;;;;;;6.25;1.35;;;;;;;3.94;100.00;98504.31;5042347;28;20020;-72
2022/11/22 01:08:23;;;;;;;4.68;1.20;;;;;;;3.95;100.00;98500.44;5064614;28;20470;-72
2022/11/22 01:10:55;;;;;;;5.75;1.38;;;;;;;3.94;100.00;98513.34;5056881;28;20039;-72
2022/11/22 01:13:20;;;;;;;9.57;1.52;;;;;;;3.96;100.00;98507.59;5053521;28;20063;-72
2022/11/22 01:15:45;;;;;;;8.85;1.30;;;;;;;3.96;100.00;98507.59;5026811;28;20480;-72
2022/11/22 01:18:11;;;;;;;6.85;1.23;;;;;;;3.98;100.00;98505.31;5043249;28;20090;-72
2022/11/22 01:20:39;;;;;;;8.00;1.30;;;;;;;3.99;100.00;98501.50;5059617;28;20031;-72
2022/11/22 01:23:04;;;;;;;8.10;1.45;;;;;;;3.99;100.00;98501.50;5052261;28;20036;-72
2022/11/22 01:25:30;;;;;;;24.02;1.58;;;;;;;4.01;100.00;98500.06;5053935;28;20033;-72
2022/11/22 01:27:55;;;;;;;6.90;1.30;;;;;;;4.04;100.00;98506.91;5073005;28;20494;-72
2022/11/22 01:30:21;;;;;;;7.72;1.15;;;;;;;4.07;100.00;98505.47;5072701;28;20596;-72
2022/11/22 01:32:46;;;;;;;6.95;1.13;;;;;;;4.08;100.00;98510.66;5035094;28;20040;-72
2022/11/22 01:35:11;;;;;;;6.38;1.50;;;;;;;4.10;100.00;98516.69;5057833;28;20040;-72
2022/11/22 01:37:37;;;;;;;11.77;1.42;;;;;;;4.15;100.00;98510.25;5046958;28;20410;-72
2022/11/22 01:40:03;;;;;;;5.28;1.10;;;;;;;4.16;100.00;98507.22;5025285;28;20031;-72
2022/11/22 01:42:51;;;;;;;13.02;1.20;;;;;;;4.14;100.00;98523.19;5042482;28;20089;-72
2022/11/22 01:45:46;;;;;;;10.60;1.20;;;;;;;4.17;100.00;98521.78;5073185;28;20028;-72
2022/11/22 01:48:12;;;;;;;9.52;1.52;;;;;;;4.17;100.00;98525.34;5058036;28;20094;-72
2022/11/22 01:50:40;;;;;;;8.20;1.40;;;;;;;4.17;100.00;98528.09;5087470;28;20052;-72
2022/11/22 01:53:08;;;;;;;7.28;1.05;;;;;;;4.19;100.00;98533.28;5045895;28;20435;-72
2022/11/22 01:55:33;;;;;;;8.60;1.15;;;;;;;4.20;100.00;98529.41;5072602;28;20033;-72
2022/11/22 01:57:59;;;;;;;11.90;1.45;;;;;;;4.20;100.00;98532.97;5038955;28;20036;-72
2022/11/22 02:00:25;;;;;;;7.30;1.10;;;;;;;4.21;100.00;98526.38;5025743;28;20570;-72
2022/11/22 02:02:54;;;;;;;11.52;1.30;;;;;;;4.22;100.00;98521.69;5055429;28;20444;-72
2022/11/22 02:05:20;;;;;;;13.68;1.33;;;;;;;4.18;100.00;98516.00;5075088;28;20035;-72
2022/11/22 02:08:04;;;;;;;7.20;1.38;;;;;;;4.19;100.00;98520.38;5039137;28;20064;-72
2022/11/22 02:10:30;;;;;;;10.23;1.20;;;;;;;4.14;100.00;98498.47;5058504;28;20032;-72
2022/11/22 02:12:57;;;;;;;15.70;1.83;;;;;;;4.14;100.00;98509.47;5051584;28;20037;-72
2022/11/22 02:15:22;;;;;;;8.60;1.30;;;;;;;4.13;100.00;98518.81;5058865;28;20040;-72
2022/11/22 02:17:48;;;;;;;7.38;1.15;;;;;;;4.16;100.00;98518.22;5041876;28;20021;-72
2022/11/22 02:20:16;;;;;;;11.80;1.30;;;;;;;4.10;100.00;98513.94;5062445;28;20037;-72
2022/11/22 02:23:05;;;;;;;9.38;1.60;;;;;;;4.12;100.00;98516.38;5034346;28;20060;-72
2022/11/22 02:25:40;;;;;;;8.30;1.13;;;;;;;4.08;100.00;98510.66;5107766;28;20035;-72
2022/11/22 02:28:10;;;;;;;12.32;1.63;;;;;;;4.13;100.00;98507.03;5078546;28;20708;-72
2022/11/22 02:30:36;;;;;;;8.07;1.30;;;;;;;4.11;100.00;98515.56;5067531;28;20032;-72
2022/11/22 02:33:01;;;;;;;7.50;1.00;;;;;;;4.12;100.00;98511.69;5040020;28;20029;-72
2022/11/22 02:35:27;;;;;;;14.57;1.77;;;;;;;4.12;100.00;98516.38;5041760;28;20477;-72
2022/11/22 02:37:57;;;;;;;7.18;1.55;;;;;;;4.13;100.00;98513.34;5058296;28;20444;-72
2022/11/22 02:40:22;;;;;;;10.55;1.20;;;;;;;4.11;100.00;98507.31;5054867;28;20024;-72
2022/11/22 02:42:50;;;;;;;9.57;1.50;;;;;;;4.12;100.00;98514.44;5052766;28;20029;-72
2022/11/22 02:45:16;;;;;;;9.82;1.15;;;;;;;4.13;100.00;98520.75;5037718;28;20036;-72
2022/11/22 02:47:41;;;;;;;8.70;1.55;;;;;;;4.10;100.00;98524.94;5070555;28;20032;-72
2022/11/22 02:50:07;;;;;;;12.60;1.73;;;;;;;4.14;100.00;98519.63;5049201;28;20043;-72
2022/11/22 02:52:33;;;;;;;8.25;1.20;;;;;;;4.13;100.00;98520.75;5053455;28;20051;-72
2022/11/22 02:54:58;;;;;;;8.70;1.63;;;;;;;4.14;100.00;98517.69;5048993;28;20021;-72
2022/11/22 02:57:24;;;;;;;14.02;1.50;;;;;;;4.11;100.00;98520.25;5060137;28;20511;-72
2022/11/22 02:59:49;;;;;;;9.23;1.45;;;;;;;4.11;100.00;98515.56;5057988;28;20036;-72
2022/11/22 03:02:14;;;;;;;10.88;1.70;;;;;;;4.13;100.00;98524.31;5041163;28;20031;-72
2022/11/22 03:04:40;;;;;;;12.40;1.25;;;;;;;4.11;100.00;98521.06;5037941;28;20028;-72
2022/11/22 03:07:05;;;;;;;12.70;1.48;;;;;;;4.12;100.00;98513.63;5052956;28;20032;-72
2022/11/22 03:09:31;;;;;;;10.40;2.00;;;;;;;4.14;100.00;98516.88;5037904;28;20029;-72
2022/11/22 03:11:57;;;;;;;8.30;1.38;;;;;;;4.18;100.00;98524.25;5019173;28;20032;-72
2022/11/22 03:14:22;;;;;;;7.82;1.60;;;;;;;4.19;100.00;98517.63;5037878;28;20025;-72
2022/11/22 03:16:48;;;;;;;12.73;1.90;;;;;;;4.18;100.00;98520.66;5053182;28;20529;-72
2022/11/22 03:19:13;;;;;;;9.15;1.65;;;;;;;4.19;100.00;98520.38;5041273;28;20032;-72
2022/11/22 03:21:39;;;;;;;14.43;1.75;;;;;;;4.18;100.00;98518.75;5051984;28;20037;-72
2022/11/22 03:24:05;;;;;;;11.70;1.58;;;;;;;4.21;100.00;98531.88;5057632;28;20036;-72
2022/11/22 03:26:30;;;;;;;14.63;3.42;;;;;;;4.24;100.00;98522.22;5057236;28;20096;-72
2022/11/22 03:28:56;;;;;;;10.65;2.75;;;;;;;4.23;100.00;98518.66;5041218;28;20028;-72
2022/11/22 03:31:21;;;;;;;12.82;2.65;;;;;;;4.25;100.00;98524.66;5073762;28;20036;-72
2022/11/22 03:33:47;;;;;;;12.95;2.63;;;;;;;4.32;100.00;98527.03;5020833;28;20029;-72
2022/11/22 03:36:12;;;;;;;11.23;2.80;;;;;;;4.30;100.00;98518.25;5034683;28;20435;-72
2022/11/22 03:38:38;;;;;;;13.48;2.78;;;;;;;4.31;100.00;98519.88;5073678;28;20037;-72
2022/11/22 03:41:03;;;;;;;16.90;2.75;;;;;;;4.32;100.00;98521.53;5057245;28;20028;-72
2022/11/22 03:43:29;;;;;;;14.70;2.70;;;;;;;4.33;100.00;98530.59;5056309;28;20485;-72
2022/11/22 03:45:54;;;;;;;9.93;2.42;;;;;;;4.35;100.00;98520.13;5057112;28;20029;-72
2022/11/22 03:48:20;;;;;;;17.20;3.13;;;;;;;4.34;100.00;98524.78;5024315;28;20028;-72
2022/11/22 03:50:45;;;;;;;17.70;2.75;;;;;;;4.38;100.00;98530.50;5073353;28;20492;-72
2022/11/22 03:53:11;;;;;;;15.95;3.13;;;;;;;4.37;100.00;98526.91;5057130;28;20028;-72
2022/11/22 03:55:36;;;;;;;15.80;2.72;;;;;;;4.36;100.00;98528.03;5040462;28;20046;-72
2022/11/22 03:58:02;;;;;;;15.80;3.25;;;;;;;4.34;100.00;98538.50;5060282;28;20059;-72
2022/11/22 04:00:27;;;;;;;16.63;2.40;;;;;;;4.34;100.00;98533.03;5038401;28;20020;-72
2022/11/22 04:02:53;;;;;;;17.45;3.33;;;;;;;4.31;100.00;98541.06;5028397;28;20031;-72
2022/11/22 04:05:18;;;;;;;13.30;2.50;;;;;;;4.30;100.00;98537.50;5060867;28;20090;-72
2022/11/22 04:07:44;;;;;;;19.40;3.40;;;;;;;4.29;100.00;98540.53;5061192;28;20032;-72
2022/11/22 04:10:09;;;;;;;17.58;3.42;;;;;;;4.27;100.00;98546.34;5044412;28;20028;-72
2022/11/22 04:12:35;;;;;;;11.60;3.10;;;;;;;4.23;100.00;98539.81;5061421;28;20032;-72
2022/11/22 04:15:06;;;;;;;13.40;2.92;;;;;;;4.19;100.00;98534.09;5060849;28;20028;-72
2022/11/22 04:17:44;;;;;;;17.73;2.67;;;;;;;4.16;100.00;98542.94;5029623;28;20021;-72
2022/11/22 04:23:01;;;;;;;17.02;2.83;;;;;;;4.10;100.00;98541.41;5063327;28;20565;-72
2022/11/22 04:25:27;;;;;;;16.90;3.03;;;;;;;4.07;100.00;98543.91;5040756;28;20032;-72
2022/11/22 04:27:53;;;;;;;20.23;2.92;;;;;;;4.05;100.00;98557.16;5052675;28;20055;-72
2022/11/22 04:30:19;;;;;;;24.88;3.35;;;;;;;4.03;100.00;98551.94;5060720;28;20036;-72
2022/11/22 04:32:44;;;;;;;16.58;2.97;;;;;;;4.00;100.00;98558.03;5040538;28;20036;-72
2022/11/22 04:35:14;;;;;;;20.58;2.63;;;;;;;3.98;100.00;98568.50;5082648;28;20028;-72
2022/11/22 04:37:41;;;;;;;16.02;2.72;;;;;;;3.97;100.00;98569.63;5061188;28;20031;-72
2022/11/22 04:40:07;;;;;;;15.68;2.97;;;;;;;3.94;100.00;98571.03;5027705;28;20112;-72
2022/11/22 04:45:16;;;;;;;18.90;3.25;;;;;;;3.96;100.00;98568.81;5051813;28;20530;-72
2022/11/22 04:48:00;;;;;;;14.43;2.80;;;;;;;3.92;100.00;98564.22;5043728;28;20037;-72
2022/11/22 04:53:10;;;;;;;14.18;3.08;;;;;;;3.88;100.00;98565.94;5048107;28;20036;-72
2022/11/22 04:55:36;;;;;;;20.23;3.00;;;;;;;3.85;100.00;98555.53;5076914;28;20028;-72
2022/11/22 04:58:01;;;;;;;16.92;3.15;;;;;;;3.81;100.00;98561.59;5047262;28;20029;-72
2022/11/22 05:00:30;;;;;;;16.50;3.25;;;;;;;3.86;100.00;98557.16;5043289;28;20025;-72
2022/11/22 05:02:56;;;;;;;11.80;2.95;;;;;;;3.85;100.00;98563.78;5073009;28;20024;-72
2022/11/22 05:05:22;;;;;;;13.57;3.03;;;;;;;3.87;100.00;98567.03;5076710;28;20074;-72
2022/11/22 05:07:48;;;;;;;16.42;3.20;;;;;;;3.86;100.00;98562.66;5039579;28;20036;-72
2022/11/22 05:10:13;;;;;;;18.33;3.00;;;;;;;3.87;100.00;98583.50;5092889;28;20024;-72
2022/11/22 05:12:40;;;;;;;19.70;3.20;;;;;;;3.86;100.00;98579.94;5060154;28;20439;-72
2022/11/22 05:15:06;;;;;;;16.98;3.38;;;;;;;3.85;100.00;98567.34;5059873;28;20059;-72
2022/11/22 05:17:31;;;;;;;14.82;2.97;;;;;;;3.85;100.00;98574.75;5056594;28;20029;-72
2022/11/22 05:19:57;;;;;;;13.75;2.78;;;;;;;3.87;100.00;98583.50;5092968;28;20076;-72
2022/11/22 05:23:53;;;;;;;12.88;2.72;;;;;;;3.86;100.00;98579.94;5059807;28;20028;-72
2022/11/22 05:25:10;;;;;;;15.43;3.30;;;;;;;3.89;100.00;98584.84;5062722;28;20056;-72
2022/11/22 05:27:36;;;;;;;18.02;3.65;;;;;;;3.87;100.00;98575.25;5059714;28;20035;-72
2022/11/22 05:30:01;;;;;;;18.88;3.33;;;;;;;3.81;100.00;98583.56;5042995;28;20089;-72
2022/11/22 05:32:29;;;;;;;17.50;2.55;;;;;;;3.84;100.00;98587.66;5049494;28;20036;-72
2022/11/22 05:34:54;;;;;;;17.27;3.35;;;;;;;3.77;100.00;98588.03;5039117;28;20029;-72
2022/11/22 05:37:21;;;;;;;15.80;3.10;;;;;;;3.77;100.00;98585.28;5076052;28;20017;-72
2022/11/22 05:39:46;;;;;;;16.80;3.45;;;;;;;3.78;100.00;98595.16;5046158;28;20028;-72
2022/11/22 05:42:12;;;;;;;18.20;3.28;;;;;;;3.73;100.00;98592.50;5059335;28;20028;-72
2022/11/22 05:44:37;;;;;;;19.02;3.97;;;;;;;3.73;100.00;98594.41;5059102;28;20055;-72
2022/11/22 05:47:03;;;;;;;21.40;4.05;;;;;;;3.72;100.00;98596.34;5036704;28;20067;-72
2022/11/22 05:49:28;;;;;;;17.98;3.20;;;;;;;3.74;100.00;98585.88;5023031;28;20028;-72
2022/11/22 05:51:54;;;;;;;13.52;2.60;;;;;;;3.73;100.00;98595.25;5042131;28;20058;-72
2022/11/22 05:54:19;;;;;;;16.55;3.20;;;;;;;3.71;100.00;98591.97;5058941;28;20032;-72
2022/11/22 05:56:47;;;;;;;16.27;3.40;;;;;;;3.71;100.00;98597.47;5042575;28;20028;-72
2022/11/22 05:59:12;;;;;;;15.93;3.17;;;;;;;3.68;100.00;98598.06;5042840;28;20035;-72
2022/11/22 06:01:37;;;;;;;16.77;2.95;;;;;;;3.69;100.00;98607.09;5065955;28;20029;-72
2022/11/22 06:04:03;;;;;;;19.73;3.10;;;;;;;3.65;100.00;98601.41;5058832;28;20477;-72
2022/11/22 06:06:28;;;;;;;12.25;2.72;;;;;;;3.65;100.00;98620.63;5065001;28;20100;-72
2022/11/22 06:08:54;;;;;;;20.60;2.90;;;;;;;3.66;100.00;98619.50;5055509;28;20029;-72
2022/11/22 06:11:21;;;;;;;20.73;2.80;;;;;;;3.64;100.00;98609.91;5049284;28;20028;-72
2022/11/22 06:13:48;;;;;;;26.50;3.85;;;;;;;3.62;100.00;98623.91;5059009;28;20071;-72
2022/11/22 06:16:14;;;;;;;16.25;2.90;;;;;;;3.61;100.00;98630.53;5055398;28;20029;-72
2022/11/22 06:18:39;;;;;;;15.48;3.28;;;;;;;3.61;100.00;98626.97;5056154;28;20159;-72
2022/11/22 06:21:06;;;;;;;11.88;3.30;;;;;;;3.58;100.00;98622.88;5041443;28;20028;-72
2022/11/22 06:23:32;;;;;;;19.35;2.75;;;;;;;3.59;100.00;98630.00;5058985;28;20024;-72
2022/11/22 06:26:08;;;;;;;17.77;2.80;;;;;;;3.56;100.00;98625.91;5058577;28;20028;-72
2022/11/22 06:28:34;;;;;;;11.63;2.47;;;;;;;3.56;100.00;98641.56;5075079;28;20473;-72
2022/11/22 06:31:01;;;;;;;16.88;2.85;;;;;;;3.54;100.00;98639.13;5056373;28;20029;-72
2022/11/22 06:33:26;;;;;;;15.05;2.70;;;;;;;3.52;100.00;98635.03;5091877;28;20130;-72
2022/11/22 06:35:52;;;;;;;14.43;2.05;;;;;;;3.52;100.00;98644.09;5074871;28;20025;-72
2022/11/22 06:38:17;;;;;;;12.23;2.05;;;;;;;3.50;100.00;98638.06;5074961;28;20398;-72
2022/11/22 06:40:42;;;;;;;14.48;2.20;;;;;;;3.48;100.00;98644.97;5074866;28;20070;-72
2022/11/22 06:43:08;;;;;;;12.57;2.45;;;;;;;3.49;100.00;98641.13;5041445;28;20036;-72
2022/11/22 06:45:33;;;;;;;16.13;2.08;;;;;;;3.48;100.00;98650.44;5055067;28;20504;-72
2022/11/22 06:47:59;;;;;;;13.60;1.98;;;;;;;3.49;100.00;98647.44;5057837;28;20024;-72
2022/11/22 06:50:24;;;;;;;12.60;2.10;;;;;;;3.48;100.00;98644.97;5037690;28;20037;-72
2022/11/22 06:52:51;;;;;;;11.10;1.80;;;;;;;3.46;100.00;98653.50;5037238;28;20029;-72
2022/11/22 06:55:16;;;;;;;11.52;1.83;;;;;;;3.47;100.00;98643.34;5057921;28;20080;-72
2022/11/22 06:57:42;;;;;;;12.50;2.28;;;;;;;3.47;100.00;98654.31;5057917;28;20358;-72
2022/11/22 07:00:08;;;;;;;9.02;1.65;;;;;;;3.47;100.00;98654.31;5037950;28;20053;-72
2022/11/22 07:02:33;;;;;;;15.50;1.90;;;;;;;3.43;100.00;98654.09;5056389;28;20040;-72
2022/11/22 07:04:59;;;;;;;11.10;1.63;;;;;;;3.45;100.00;98651.03;5074338;28;20039;-72
2022/11/22 07:07:24;;;;;;;10.57;2.20;;;;;;;3.42;100.00;98659.84;5057442;28;20035;-72
2022/11/22 07:09:50;;;;;;;8.95;1.60;;;;;;;3.45;100.00;98659.28;5074503;28;20028;-72
2022/11/22 07:12:15;;;;;;;11.63;1.33;;;;;;;3.43;100.00;98664.25;5057580;28;20487;-72
2022/11/22 07:14:41;;;;;;;10.05;2.45;;;;;;;3.40;100.00;98660.16;5041297;28;20111;-72
2022/11/22 07:17:06;;;;;;;16.73;1.67;;;;;;;3.42;100.00;98660.66;5024762;28;20020;-72
2022/11/22 07:19:32;;;;;;;14.82;1.65;;;;;;;3.40;100.00;98673.03;5057909;28;20032;-73
2022/11/22 07:21:57;;;;;;;10.23;1.55;;;;;;;3.36;100.00;98672.81;5057539;28;20032;-71
2022/11/22 07:24:23;;;;;;;13.35;2.15;;;;;;;3.38;100.00;98678.03;5040654;28;20025;-72
2022/11/22 07:26:48;;;;;;;12.23;1.60;;;;;;;3.35;100.00;98669.25;5057438;28;20040;-72
2022/11/22 07:29:14;;;;;;;6.72;1.52;;;;;;;3.34;100.00;98675.03;5057616;28;20028;-72
2022/11/22 07:31:39;;;;;;;9.00;1.73;;;;;;;3.36;100.00;98668.13;5047695;28;20110;-72
2022/11/22 07:34:05;;;;;;;6.40;1.88;;;;;;;3.35;100.00;98672.00;5074178;28;20028;-72
2022/11/22 07:36:31;;;;;;;10.57;1.85;;;;;;;3.32;100.00;98669.84;5060483;28;20025;-72
2022/11/22 07:38:56;;;;;;;15.02;2.10;;;;;;;3.33;100.00;98676.97;5037648;28;20037;-72
2022/11/22 07:41:22;;;;;;;13.57;1.98;;;;;;;3.35;100.00;98669.25;5024282;28;20037;-72
2022/11/22 07:43:47;;;;;;;12.07;2.42;;;;;;;3.33;100.00;98665.16;5040771;28;20499;-72
2022/11/22 07:46:30;;;;;;;13.77;1.83;;;;;;;3.33;100.00;98670.66;5072848;28;20024;-72
2022/11/22 07:48:59;;;;;;;10.70;2.00;;;;;;;3.33;100.00;98670.66;5061745;28;20037;-72
2022/11/22 07:51:25;;;;;;;13.27;2.60;;;;;;;3.32;100.00;98671.78;5036978;28;20080;-72
2022/11/22 07:53:50;;;;;;;15.32;2.40;;;;;;;3.34;100.00;98673.13;5066555;28;20127;-72
2022/11/22 07:56:16;;;;;;;15.77;2.75;;;;;;;3.39;100.00;98680.47;5057234;28;20024;-72
2022/11/22 07:58:41;;;;;;;15.25;2.78;;;;;;;3.39;100.00;98676.91;5075110;28;20032;-72
2022/11/22 08:01:08;;;;;;;14.65;2.17;;;;;;;3.40;100.00;98686.75;5057444;28;20050;-72
2022/11/22 08:03:34;;;;;;;16.38;2.50;;;;;;;3.43;100.00;98688.97;5054319;28;20366;-72
2022/11/22 08:06:00;;;;;;;15.65;3.00;;;;;;;3.48;100.00;98694.38;5039486;28;20103;-72
2022/11/22 08:08:26;;;;;;;11.70;2.35;;;;;;;3.53;100.00;98686.88;5052803;28;20397;-72
2022/11/22 08:10:52;;;;;;;16.30;2.47;;;;;;;3.60;100.00;98691.22;5056573;28;20032;-72
2022/11/22 08:13:17;;;;;;;14.75;2.10;;;;;;;3.64;100.00;98698.56;5057112;28;20025;-72
2022/11/22 08:15:44;;;;;;;19.38;2.83;;;;;;;3.72;100.00;98700.66;5023907;28;20032;-72
2022/11/22 08:18:09;;;;;;;15.98;2.55;;;;;;;3.80;100.00;98690.97;5047282;28;20531;-72
2022/11/22 08:20:35;;;;;;;13.23;2.35;;;;;;;3.87;100.00;98707.09;5016793;28;20029;-72
2022/11/22 08:23:00;;;;;;;13.23;2.00;;;;;;;3.94;100.00;98702.06;5083919;28;20029;-72
2022/11/22 08:25:26;;;;;;;13.05;2.67;;;;;;;4.04;100.00;98701.94;5071825;28;20029;-72
2022/11/22 08:27:51;;;;;;;15.38;2.67;;;;;;;4.13;100.00;98705.66;5063418;28;20025;-72
2022/11/22 08:30:17;;;;;;;17.92;2.92;;;;;;;4.22;100.00;98709.34;5085196;28;20028;-72
2022/11/22 08:32:42;;;;;;;15.65;2.63;;;;;;;4.30;100.00;98721.63;5052373;28;20066;-72
2022/11/22 08:35:08;;;;;;;12.55;2.08;;;;;;;4.39;100.00;98719.03;5040366;28;20546;-72
2022/11/22 08:37:34;;;;;;;14.52;2.50;;;;;;;4.49;100.00;98729.88;5040398;28;20037;-72
2022/11/22 08:39:59;;;;;;;13.43;2.08;;;;;;;4.58;100.00;98719.84;5023833;28;20025;-72
2022/11/22 08:42:25;;;;;;;14.45;2.28;;;;;;;4.66;100.00;98715.59;5023899;28;20043;-72
2022/11/22 08:44:50;;;;;;;19.60;2.13;;;;;;;4.78;100.00;98712.38;5041693;28;20036;-72
2022/11/22 08:47:16;;;;;;;16.10;2.08;;;;;;;4.87;100.00;98724.34;5052121;28;20025;-72
2022/11/22 08:49:41;;;;;;;18.45;2.38;;;;;;;4.98;100.00;98719.47;5043381;28;20032;-72
2022/11/22 08:52:06;;;;;;;12.20;2.55;;;;;;;5.09;100.00;98734.69;5077005;28;20090;-72
2022/11/22 08:54:32;;;;;;;16.10;2.22;;;;;;;5.18;100.00;98745.84;5021595;28;20024;-72
2022/11/22 08:56:57;;;;;;;20.02;3.45;;;;;;;5.29;100.00;98741.78;5075519;28;20025;-72
2022/11/22 08:59:23;;;;;;;16.40;2.35;;;;;;;5.38;100.00;98734.47;5076863;28;20032;-72
2022/11/22 09:01:48;;;;;;;15.30;2.65;;;;;;;5.49;100.00;98738.69;5059525;28;20032;-72
2022/11/22 09:04:14;;;;;;;17.13;2.50;;;;;;;5.59;100.00;98752.25;5059823;28;20024;-72
2022/11/22 09:06:40;;;;;;;17.73;2.10;;;;;;;5.72;100.00;98749.81;5060053;28;20027;-72
2022/11/22 09:09:05;;;;;;;16.42;2.60;;;;;;;5.80;100.00;98738.09;5043533;28;20078;-72
2022/11/22 09:11:31;;;;;;;16.50;2.65;;;;;;;5.89;100.00;98739.00;5039891;28;20028;-72
2022/11/22 09:13:56;;;;;;;16.52;2.47;;;;;;;5.96;100.00;98749.63;5058804;28;20033;-73
2022/11/22 09:16:22;;;;;;;16.85;3.00;;;;;;;6.01;100.00;98738.50;5072407;28;20062;-72
2022/11/22 09:18:47;;;;;;;16.05;2.67;;;;;;;6.07;100.00;98736.47;5059867;28;20075;-72
2022/11/22 09:21:15;;;;;;;15.45;2.30;;;;;;;6.15;100.00;98738.50;5063964;28;20029;-72
2022/11/22 09:23:42;;;;;;;15.05;2.83;;;;;;;6.20;100.00;98733.69;5059017;28;20029;-73
2022/11/22 09:26:09;;;;;;;14.70;2.08;;;;;;;6.28;100.00;98740.44;5059990;28;20025;-72
2022/11/22 09:28:35;;;;;;;15.18;1.73;;;;;;;6.34;100.00;98733.69;5059978;28;20039;-72
2022/11/22 09:31:11;;;;;;;16.05;2.08;;;;;;;6.42;100.00;98752.25;5059338;28;20037;-72
2022/11/22 09:33:37;;;;;;;14.27;2.80;;;;;;;6.49;100.00;98741.63;5058303;28;20039;-72
2022/11/22 09:36:08;;;;;;;17.20;1.75;;;;;;;6.58;100.00;98746.41;5052050;28;20028;-72
2022/11/22 09:38:34;;;;;;;12.57;2.03;;;;;;;6.64;100.00;98737.69;5059887;28;20036;-73
2022/11/22 09:41:05;;;;;;;25.42;3.10;;;;;;;6.73;100.00;98748.81;5059309;28;20405;-72
2022/11/22 09:44:08;;;;;;;16.85;2.13;;;;;;;6.82;100.00;98744.16;5082591;28;20033;-72
2022/11/22 09:46:44;;;;;;;21.40;2.90;;;;;;;6.92;100.00;98738.41;5075467;28;20032;-72
2022/11/22 09:49:15;;;;;;;15.70;2.10;;;;;;;7.02;100.00;98731.84;5070085;28;20032;-73
2022/11/22 09:51:50;;;;;;;13.80;2.08;;;;;;;7.12;100.00;98737.09;5058468;28;20426;-73
2022/11/22 09:54:25;;;;;;;16.67;2.53;;;;;;;7.24;100.00;98742.03;5058628;28;20568;-72
2022/11/22 09:56:50;;;;;;;23.83;2.92;;;;;;;7.34;100.00;98744.53;5075630;28;20024;-72
2022/11/22 09:59:21;;;;;;;22.25;2.55;;;;;;;7.44;100.00;98742.63;5041868;28;20056;-73
2022/11/22 10:01:54;;;;;;;11.10;1.92;;;;;;;7.57;100.00;98747.25;5034923;28;20028;-73
2022/11/22 10:04:36;;;;;;;15.70;2.45;;;;;;;7.65;100.00;98737.41;5059113;28;20024;-77
2022/11/22 10:07:06;;;;;;;18.38;2.15;;;;;;;7.78;100.00;98751.13;5047085;28;20048;-76
2022/11/22 10:09:42;;;;;;;17.65;2.28;;;;;;;7.89;100.00;98746.13;5058937;28;20024;-76
2022/11/22 10:12:35;;;;;;;11.45;2.25;;;;;;;8.01;100.00;98754.59;5059171;28;20435;-76
2022/11/22 10:15:37;;;;;;;21.15;2.47;;;;;;;8.15;100.00;98765.56;5075229;28;20028;-76
2022/11/22 10:18:10;;;;;;;14.07;2.30;;;;;;;8.26;100.00;98760.56;5076506;28;20021;-76
2022/11/22 10:20:38;;;;;;;23.98;3.15;;;;;;;8.41;100.00;98764.84;5043222;28;20040;-76
2022/11/22 10:23:14;;;;;;;17.80;2.20;;;;;;;8.53;100.00;98747.63;5092373;28;20037;-75
2022/11/22 10:25:42;;;;;;;21.63;2.70;;;;;;;8.60;100.00;98746.00;5061943;28;20558;-76
2022/11/22 10:28:23;;;;;;;9.60;1.70;;;;;;;8.71;100.00;98752.84;5055680;28;20040;-79
2022/11/22 10:30:59;;;;;;;19.20;2.50;;;;;;;8.81;100.00;98751.72;5075145;28;20111;-76
2022/11/22 10:33:28;;;;;;;23.00;2.65;;;;;;;8.91;100.00;98745.03;5069701;28;20035;-76
2022/11/22 10:36:10;;;;;;;18.63;2.75;;;;;;;8.98;100.00;98758.41;5081628;28;20518;-76
2022/11/22 10:38:45;;;;;;;6.07;1.27;;;;;;;9.06;100.00;98752.84;5062168;28;20040;-76
2022/11/22 10:41:20;;;;;;;15.25;2.63;;;;;;;9.14;100.00;98745.69;5076105;28;20383;-76
2022/11/22 10:44:07;;;;;;;15.45;2.28;;;;;;;9.17;100.00;98745.84;5074905;28;20037;-76
2022/11/22 10:46:42;;;;;;;23.73;2.55;;;;;;;9.24;100.00;98761.94;5075695;28;20064;-76
2022/11/22 10:49:16;;;;;;;20.27;2.83;;;;;;;9.32;100.00;98746.47;5075994;28;20035;-76
2022/11/22 10:51:50;;;;;;;22.67;2.65;;;;;;;9.40;100.00;98742.88;5075730;28;20515;-76
2022/11/22 10:54:40;;;;;;;20.13;3.03;;;;;;;9.47;100.00;98739.56;5074558;28;20041;-76
2022/11/22 10:57:33;;;;;;;19.80;2.75;;;;;;;9.52;100.00;98736.63;5074669;28;20132;-76
2022/11/22 11:00:13;;;;;;;22.38;3.30;;;;;;;9.53;100.00;98733.53;5064824;28;20090;-76
2022/11/22 11:03:03;;;;;;;17.63;2.63;;;;;;;9.58;100.00;98736.16;5056951;28;20044;-76
2022/11/22 11:05:50;;;;;;;20.02;2.78;;;;;;;9.61;100.00;98718.84;5073717;28;20028;-76
2022/11/22 11:08:39;;;;;;;25.92;2.97;;;;;;;9.65;100.00;98723.72;5047700;28;20370;-76
2022/11/22 11:11:04;;;;;;;16.95;2.40;;;;;;;9.70;100.00;98732.69;5064879;28;20098;-76
2022/11/22 11:13:47;;;;;;;20.35;2.95;;;;;;;9.73;100.00;98695.97;5057793;28;20060;-76
2022/11/22 11:16:16;;;;;;;19.13;2.73;;;;;;;9.78;100.00;98709.66;5048359;28;20030;-76
2022/11/22 11:18:49;;;;;;;18.80;2.72;;;;;;;9.81;100.00;98702.63;5050736;28;20032;-76
2022/11/22 11:21:15;;;;;;;17.63;2.53;;;;;;;9.87;100.00;98720.69;5087773;28;20043;-76
2022/11/22 11:23:41;;;;;;;24.73;3.10;;;;;;;9.94;100.00;98720.97;5057382;28;20393;-76
2022/11/22 11:26:33;;;;;;;19.80;2.17;;;;;;;10.16;100.00;98710.75;5075377;28;20040;-76
2022/11/22 11:29:17;;;;;;;16.97;2.50;;;;;;;10.70;100.00;98710.94;5091632;28;20121;-76
2022/11/22 11:31:47;;;;;;;19.15;2.50;;;;;;;11.06;100.00;98715.84;5074936;28;20140;-75
2022/11/22 11:34:20;;;;;;;17.35;2.33;;;;;;;11.29;100.00;98709.91;5075256;28;20033;-75
2022/11/22 11:36:45;;;;;;;;;;;;;;;11.15;100.00;98708.25;5074400;28;20032;-75
2022/11/22 11:39:20;;;;;;;19.88;2.75;;;;;;;10.85;100.00;98710.31;5071852;28;19922;-75